sensor_id;sensor_type;location;lat;lon;timestamp;temperature;humidity
8114;DHT22;4099;52.684;9.918;2023-05-07T00:04:05;9.80;99.90
8114;DHT22;4099;52.684;9.918;2023-05-07T00:09:09;9.80;99.90
8114;DHT22;4099;52.684;9.918;2023-05-07T00:14:11;9.80;99.90
8114;DHT22;4099;52.684;9.918;2023-05-07T00:19:12;9.70;99.90
8114;DHT22;4099;52.684;9.918;2023-05-07T00:24:15;9.70;99.90
8114;DHT22;4099;52.684;9.918;2023-05-07T00:29:17;9.70;99.90
8114;DHT22;4099;52.684;9.918;2023-05-07T00:34:19;9.70;99.90
8114;DHT22;4099;52.684;9.918;2023-05-07T00:39:22;9.70;99.90
8114;DHT22;4099;52.684;9.918;2023-05-07T00:44:24;9.70;99.90
8114;DHT22;4099;52.684;9.918;2023-05-07T00:49:34;9.70;99.90
8114;DHT22;4099;52.684;9.918;2023-05-07T00:54:38;9.60;99.90
8114;DHT22;4099;52.684;9.918;2023-05-07T00:59:41;9.60;99.90
8114;DHT22;4099;52.684;9.918;2023-05-07T01:04:43;9.70;99.90
8114;DHT22;4099;52.684;9.918;2023-05-07T01:09:47;9.80;99.90
8114;DHT22;4099;52.684;9.918;2023-05-07T01:14:49;9.70;99.90
8114;DHT22;4099;52.684;9.918;2023-05-07T01:19:51;9.70;99.90
8114;DHT22;4099;52.684;9.918;2023-05-07T01:24:55;9.60;99.90
8114;DHT22;4099;52.684;9.918;2023-05-07T01:29:57;9.70;99.90
8114;DHT22;4099;52.684;9.918;2023-05-07T01:35:00;9.70;99.90
8114;DHT22;4099;52.684;9.918;2023-05-07T01:40:05;9.70;99.90
8114;DHT22;4099;52.684;9.918;2023-05-07T01:45:08;9.70;99.90
8114;DHT22;4099;52.684;9.918;2023-05-07T01:50:10;9.80;99.90
8114;DHT22;4099;52.684;9.918;2023-05-07T01:55:13;9.70;99.90
8114;DHT22;4099;52.684;9.918;2023-05-07T02:00:16;9.70;99.90
8114;DHT22;4099;52.684;9.918;2023-05-07T02:05:19;9.60;99.90
8114;DHT22;4099;52.684;9.918;2023-05-07T02:10:27;9.70;99.90
8114;DHT22;4099;52.684;9.918;2023-05-07T02:15:29;9.70;99.90
8114;DHT22;4099;52.684;9.918;2023-05-07T02:20:34;9.70;99.90
8114;DHT22;4099;52.684;9.918;2023-05-07T02:25:38;9.60;99.90
8114;DHT22;4099;52.684;9.918;2023-05-07T02:30:40;9.60;99.90
8114;DHT22;4099;52.684;9.918;2023-05-07T02:35:42;9.70;99.90
8114;DHT22;4099;52.684;9.918;2023-05-07T02:40:48;9.50;99.90
8114;DHT22;4099;52.684;9.918;2023-05-07T02:46:00;9.50;99.90
8114;DHT22;4099;52.684;9.918;2023-05-07T02:51:03;9.50;99.90
8114;DHT22;4099;52.684;9.918;2023-05-07T02:56:08;9.50;99.90
8114;DHT22;4099;52.684;9.918;2023-05-07T03:01:09;9.50;99.90
8114;DHT22;4099;52.684;9.918;2023-05-07T03:06:23;9.60;99.90
8114;DHT22;4099;52.684;9.918;2023-05-07T03:11:26;9.60;99.90
8114;DHT22;4099;52.684;9.918;2023-05-07T03:16:28;9.50;99.90
8114;DHT22;4099;52.684;9.918;2023-05-07T03:21:30;9.40;99.90
8114;DHT22;4099;52.684;9.918;2023-05-07T03:26:35;9.50;99.90
8114;DHT22;4099;52.684;9.918;2023-05-07T03:31:37;9.40;99.90
8114;DHT22;4099;52.684;9.918;2023-05-07T03:36:39;9.40;99.90
8114;DHT22;4099;52.684;9.918;2023-05-07T03:41:45;9.40;99.90
8114;DHT22;4099;52.684;9.918;2023-05-07T03:46:47;9.40;99.90
8114;DHT22;4099;52.684;9.918;2023-05-07T03:51:49;9.40;99.90
8114;DHT22;4099;52.684;9.918;2023-05-07T03:56:52;9.40;99.90
8114;DHT22;4099;52.684;9.918;2023-05-07T04:01:55;9.40;99.90
8114;DHT22;4099;52.684;9.918;2023-05-07T04:06:58;9.50;99.90
8114;DHT22;4099;52.684;9.918;2023-05-07T04:12:04;9.50;99.90
8114;DHT22;4099;52.684;9.918;2023-05-07T04:17:06;9.50;99.90
8114;DHT22;4099;52.684;9.918;2023-05-07T04:22:12;9.50;99.90
8114;DHT22;4099;52.684;9.918;2023-05-07T04:27:15;9.50;99.90
8114;DHT22;4099;52.684;9.918;2023-05-07T04:32:17;9.40;99.90
8114;DHT22;4099;52.684;9.918;2023-05-07T04:37:20;9.50;99.90
8114;DHT22;4099;52.684;9.918;2023-05-07T04:42:23;9.50;99.90
8114;DHT22;4099;52.684;9.918;2023-05-07T04:47:25;9.50;99.90
8114;DHT22;4099;52.684;9.918;2023-05-07T04:52:27;9.40;99.90
8114;DHT22;4099;52.684;9.918;2023-05-07T04:57:30;9.50;99.90
8114;DHT22;4099;52.684;9.918;2023-05-07T05:02:32;9.50;99.90
8114;DHT22;4099;52.684;9.918;2023-05-07T05:07:34;9.70;99.90
8114;DHT22;4099;52.684;9.918;2023-05-07T05:12:37;9.70;99.90
8114;DHT22;4099;52.684;9.918;2023-05-07T05:17:40;9.60;99.90
8114;DHT22;4099;52.684;9.918;2023-05-07T05:22:42;9.60;99.90
8114;DHT22;4099;52.684;9.918;2023-05-07T05:27:48;9.80;99.90
8114;DHT22;4099;52.684;9.918;2023-05-07T05:32:50;9.80;99.90
8114;DHT22;4099;52.684;9.918;2023-05-07T05:37:52;9.80;99.90
8114;DHT22;4099;52.684;9.918;2023-05-07T05:42:56;9.80;99.90
8114;DHT22;4099;52.684;9.918;2023-05-07T05:47:59;9.90;99.90
8114;DHT22;4099;52.684;9.918;2023-05-07T05:53:01;9.90;99.90
8114;DHT22;4099;52.684;9.918;2023-05-07T05:58:05;9.90;99.90
8114;DHT22;4099;52.684;9.918;2023-05-07T06:03:10;9.90;99.90
8114;DHT22;4099;52.684;9.918;2023-05-07T06:08:13;10.00;99.90
8114;DHT22;4099;52.684;9.918;2023-05-07T06:13:16;10.20;99.90
8114;DHT22;4099;52.684;9.918;2023-05-07T06:18:18;10.20;99.90
8114;DHT22;4099;52.684;9.918;2023-05-07T06:23:20;10.30;99.90
8114;DHT22;4099;52.684;9.918;2023-05-07T06:28:23;10.30;99.90
8114;DHT22;4099;52.684;9.918;2023-05-07T06:33:26;10.50;99.90
8114;DHT22;4099;52.684;9.918;2023-05-07T06:38:28;10.60;99.90
8114;DHT22;4099;52.684;9.918;2023-05-07T06:43:31;10.60;99.90
8114;DHT22;4099;52.684;9.918;2023-05-07T06:48:52;10.80;99.90
8114;DHT22;4099;52.684;9.918;2023-05-07T06:53:54;10.90;99.90
8114;DHT22;4099;52.684;9.918;2023-05-07T06:58:57;11.00;99.90
8114;DHT22;4099;52.684;9.918;2023-05-07T07:03:59;11.10;99.90
8114;DHT22;4099;52.684;9.918;2023-05-07T07:09:03;11.00;99.90
8114;DHT22;4099;52.684;9.918;2023-05-07T07:14:07;10.90;99.90
8114;DHT22;4099;52.684;9.918;2023-05-07T07:19:16;11.10;99.90
8114;DHT22;4099;52.684;9.918;2023-05-07T07:24:18;11.20;99.90
8114;DHT22;4099;52.684;9.918;2023-05-07T07:29:25;11.30;99.90
8114;DHT22;4099;52.684;9.918;2023-05-07T07:34:28;11.30;99.90
8114;DHT22;4099;52.684;9.918;2023-05-07T07:39:30;11.20;99.90
8114;DHT22;4099;52.684;9.918;2023-05-07T07:44:34;11.20;99.90
8114;DHT22;4099;52.684;9.918;2023-05-07T07:49:41;11.00;99.90
8114;DHT22;4099;52.684;9.918;2023-05-07T07:54:44;11.10;99.90
8114;DHT22;4099;52.684;9.918;2023-05-07T07:59:48;11.20;99.90
8114;DHT22;4099;52.684;9.918;2023-05-07T08:04:50;11.30;99.90
8114;DHT22;4099;52.684;9.918;2023-05-07T08:09:52;11.40;99.90
8114;DHT22;4099;52.684;9.918;2023-05-07T08:14:59;11.40;99.90
8114;DHT22;4099;52.684;9.918;2023-05-07T08:20:01;11.50;99.90
8114;DHT22;4099;52.684;9.918;2023-05-07T08:25:04;11.60;99.90
8114;DHT22;4099;52.684;9.918;2023-05-07T08:30:09;11.70;99.90
8114;DHT22;4099;52.684;9.918;2023-05-07T08:35:12;11.70;99.90
8114;DHT22;4099;52.684;9.918;2023-05-07T08:40:14;11.80;99.90
8114;DHT22;4099;52.684;9.918;2023-05-07T08:45:19;12.00;99.90
8114;DHT22;4099;52.684;9.918;2023-05-07T08:50:23;12.00;99.90
8114;DHT22;4099;52.684;9.918;2023-05-07T08:55:28;12.20;99.90
8114;DHT22;4099;52.684;9.918;2023-05-07T09:00:33;12.30;99.90
8114;DHT22;4099;52.684;9.918;2023-05-07T09:05:35;12.40;99.90
8114;DHT22;4099;52.684;9.918;2023-05-07T09:10:39;12.50;99.90
8114;DHT22;4099;52.684;9.918;2023-05-07T09:15:43;12.50;99.90
8114;DHT22;4099;52.684;9.918;2023-05-07T09:20:45;12.90;99.90
8114;DHT22;4099;52.684;9.918;2023-05-07T09:25:48;13.50;99.90
8114;DHT22;4099;52.684;9.918;2023-05-07T09:30:58;13.90;99.90
8114;DHT22;4099;52.684;9.918;2023-05-07T09:36:02;14.00;99.90
8114;DHT22;4099;52.684;9.918;2023-05-07T09:41:07;14.00;99.90
8114;DHT22;4099;52.684;9.918;2023-05-07T09:46:19;14.30;99.90
8114;DHT22;4099;52.684;9.918;2023-05-07T09:51:29;14.40;99.90
8114;DHT22;4099;52.684;9.918;2023-05-07T09:56:35;14.80;99.90
8114;DHT22;4099;52.684;9.918;2023-05-07T10:01:42;14.90;99.90
8114;DHT22;4099;52.684;9.918;2023-05-07T10:06:46;15.00;99.90
8114;DHT22;4099;52.684;9.918;2023-05-07T10:11:49;15.10;99.90
8114;DHT22;4099;52.684;9.918;2023-05-07T10:16:55;14.90;99.90
8114;DHT22;4099;52.684;9.918;2023-05-07T10:22:02;15.10;99.90
8114;DHT22;4099;52.684;9.918;2023-05-07T10:27:10;15.40;99.90
8114;DHT22;4099;52.684;9.918;2023-05-07T10:32:39;15.80;99.90
8114;DHT22;4099;52.684;9.918;2023-05-07T10:37:45;16.00;99.90
8114;DHT22;4099;52.684;9.918;2023-05-07T10:42:58;16.30;99.90
8114;DHT22;4099;52.684;9.918;2023-05-07T10:48:11;16.30;99.90
8114;DHT22;4099;52.684;9.918;2023-05-07T10:53:22;16.30;99.50
8114;DHT22;4099;52.684;9.918;2023-05-07T10:58:52;16.40;99.90
8114;DHT22;4099;52.684;9.918;2023-05-07T11:04:15;16.70;99.90
8114;DHT22;4099;52.684;9.918;2023-05-07T11:10:09;16.90;99.90
8114;DHT22;4099;52.684;9.918;2023-05-07T11:15:44;17.20;99.10
8114;DHT22;4099;52.684;9.918;2023-05-07T11:20:57;17.30;99.10
8114;DHT22;4099;52.684;9.918;2023-05-07T11:26:11;17.70;98.60
8114;DHT22;4099;52.684;9.918;2023-05-07T11:31:20;18.00;98.90
8114;DHT22;4099;52.684;9.918;2023-05-07T11:36:24;18.10;98.40
8114;DHT22;4099;52.684;9.918;2023-05-07T11:41:35;18.50;98.30
8114;DHT22;4099;52.684;9.918;2023-05-07T11:46:37;18.40;96.70
8114;DHT22;4099;52.684;9.918;2023-05-07T11:51:47;18.10;98.70
8114;DHT22;4099;52.684;9.918;2023-05-07T11:56:50;18.20;97.40
8114;DHT22;4099;52.684;9.918;2023-05-07T12:01:52;18.50;98.00
8114;DHT22;4099;52.684;9.918;2023-05-07T12:06:55;18.60;96.40
8114;DHT22;4099;52.684;9.918;2023-05-07T12:12:03;18.40;96.90
8114;DHT22;4099;52.684;9.918;2023-05-07T12:17:09;18.30;96.60
8114;DHT22;4099;52.684;9.918;2023-05-07T12:22:13;17.10;97.00
8114;DHT22;4099;52.684;9.918;2023-05-07T12:27:16;17.10;98.70
8114;DHT22;4099;52.684;9.918;2023-05-07T12:32:20;17.80;99.40
8114;DHT22;4099;52.684;9.918;2023-05-07T12:37:25;18.30;99.10
8114;DHT22;4099;52.684;9.918;2023-05-07T12:42:27;18.90;97.00
8114;DHT22;4099;52.684;9.918;2023-05-07T12:47:34;19.60;96.40
8114;DHT22;4099;52.684;9.918;2023-05-07T12:52:38;19.60;95.40
8114;DHT22;4099;52.684;9.918;2023-05-07T12:57:42;19.70;96.10
8114;DHT22;4099;52.684;9.918;2023-05-07T13:02:45;20.70;96.60
8114;DHT22;4099;52.684;9.918;2023-05-07T13:07:54;20.20;95.50
8114;DHT22;4099;52.684;9.918;2023-05-07T13:12:56;20.10;94.40
8114;DHT22;4099;52.684;9.918;2023-05-07T13:17:57;19.80;93.80
8114;DHT22;4099;52.684;9.918;2023-05-07T13:23:02;21.00;93.20
8114;DHT22;4099;52.684;9.918;2023-05-07T13:28:05;21.20;93.00
8114;DHT22;4099;52.684;9.918;2023-05-07T13:33:07;22.60;91.30
8114;DHT22;4099;52.684;9.918;2023-05-07T13:38:10;22.50;90.90
8114;DHT22;4099;52.684;9.918;2023-05-07T13:43:13;23.10;91.30
8114;DHT22;4099;52.684;9.918;2023-05-07T13:48:15;23.90;91.20
8114;DHT22;4099;52.684;9.918;2023-05-07T13:53:18;23.90;87.90
8114;DHT22;4099;52.684;9.918;2023-05-07T13:58:20;23.80;89.10
8114;DHT22;4099;52.684;9.918;2023-05-07T14:03:23;23.10;86.50
8114;DHT22;4099;52.684;9.918;2023-05-07T14:08:26;21.80;90.40
8114;DHT22;4099;52.684;9.918;2023-05-07T14:13:28;19.80;91.20
8114;DHT22;4099;52.684;9.918;2023-05-07T14:18:31;19.30;93.10
8114;DHT22;4099;52.684;9.918;2023-05-07T14:23:35;19.10;91.00
8114;DHT22;4099;52.684;9.918;2023-05-07T14:28:37;19.00;92.10
8114;DHT22;4099;52.684;9.918;2023-05-07T14:33:40;19.20;91.80
8114;DHT22;4099;52.684;9.918;2023-05-07T14:38:43;18.80;92.80
8114;DHT22;4099;52.684;9.918;2023-05-07T14:43:45;19.30;92.90
8114;DHT22;4099;52.684;9.918;2023-05-07T14:48:50;20.20;92.40
8114;DHT22;4099;52.684;9.918;2023-05-07T14:53:55;21.00;91.90
8114;DHT22;4099;52.684;9.918;2023-05-07T14:58:57;21.00;91.40
8114;DHT22;4099;52.684;9.918;2023-05-07T15:04:00;19.80;91.90
8114;DHT22;4099;52.684;9.918;2023-05-07T15:09:03;19.20;92.10
8114;DHT22;4099;52.684;9.918;2023-05-07T15:14:05;19.20;93.60
8114;DHT22;4099;52.684;9.918;2023-05-07T15:19:07;19.00;93.30
8114;DHT22;4099;52.684;9.918;2023-05-07T15:24:10;18.60;92.60
8114;DHT22;4099;52.684;9.918;2023-05-07T15:29:12;18.60;94.00
8114;DHT22;4099;52.684;9.918;2023-05-07T15:34:14;18.90;94.30
8114;DHT22;4099;52.684;9.918;2023-05-07T15:39:18;18.90;92.30
8114;DHT22;4099;52.684;9.918;2023-05-07T15:44:20;18.30;93.00
8114;DHT22;4099;52.684;9.918;2023-05-07T15:49:22;18.20;94.10
8114;DHT22;4099;52.684;9.918;2023-05-07T15:54:25;18.60;93.20
8114;DHT22;4099;52.684;9.918;2023-05-07T15:59:27;18.60;93.70
8114;DHT22;4099;52.684;9.918;2023-05-07T16:04:29;18.50;92.50
8114;DHT22;4099;52.684;9.918;2023-05-07T16:09:33;19.30;93.20
8114;DHT22;4099;52.684;9.918;2023-05-07T16:14:35;21.40;90.80
8114;DHT22;4099;52.684;9.918;2023-05-07T16:19:36;21.80;89.70
8114;DHT22;4099;52.684;9.918;2023-05-07T16:24:39;22.20;91.30
8114;DHT22;4099;52.684;9.918;2023-05-07T16:29:41;25.60;82.00
8114;DHT22;4099;52.684;9.918;2023-05-07T16:34:43;26.30;80.00
8114;DHT22;4099;52.684;9.918;2023-05-07T16:39:46;26.50;77.70
8114;DHT22;4099;52.684;9.918;2023-05-07T16:44:48;25.80;75.80
8114;DHT22;4099;52.684;9.918;2023-05-07T16:49:50;24.10;76.50
8114;DHT22;4099;52.684;9.918;2023-05-07T16:54:53;20.90;83.30
8114;DHT22;4099;52.684;9.918;2023-05-07T16:59:57;18.70;88.30
8114;DHT22;4099;52.684;9.918;2023-05-07T17:04:59;18.50;89.90
8114;DHT22;4099;52.684;9.918;2023-05-07T17:10:02;19.00;89.50
8114;DHT22;4099;52.684;9.918;2023-05-07T17:15:06;19.30;90.00
8114;DHT22;4099;52.684;9.918;2023-05-07T17:20:08;19.90;87.70
8114;DHT22;4099;52.684;9.918;2023-05-07T17:25:12;19.00;90.10
8114;DHT22;4099;52.684;9.918;2023-05-07T17:30:14;18.00;91.00
8114;DHT22;4099;52.684;9.918;2023-05-07T17:35:16;16.70;92.60
8114;DHT22;4099;52.684;9.918;2023-05-07T17:40:20;16.50;93.80
8114;DHT22;4099;52.684;9.918;2023-05-07T17:45:22;16.90;93.20
8114;DHT22;4099;52.684;9.918;2023-05-07T17:50:24;16.50;93.90
8114;DHT22;4099;52.684;9.918;2023-05-07T17:55:27;15.80;94.80
8114;DHT22;4099;52.684;9.918;2023-05-07T18:00:29;15.30;96.30
8114;DHT22;4099;52.684;9.918;2023-05-07T18:05:31;14.90;98.20
8114;DHT22;4099;52.684;9.918;2023-05-07T18:10:35;14.40;99.90
8114;DHT22;4099;52.684;9.918;2023-05-07T18:15:37;14.00;99.90
8114;DHT22;4099;52.684;9.918;2023-05-07T18:20:39;13.80;99.90
8114;DHT22;4099;52.684;9.918;2023-05-07T18:25:42;13.60;99.90
8114;DHT22;4099;52.684;9.918;2023-05-07T18:30:44;13.30;99.90
8114;DHT22;4099;52.684;9.918;2023-05-07T18:35:45;13.10;99.90
8114;DHT22;4099;52.684;9.918;2023-05-07T18:40:49;13.00;99.90
8114;DHT22;4099;52.684;9.918;2023-05-07T18:45:50;12.90;99.90
8114;DHT22;4099;52.684;9.918;2023-05-07T18:50:52;12.70;99.90
8114;DHT22;4099;52.684;9.918;2023-05-07T18:55:55;12.50;99.90
8114;DHT22;4099;52.684;9.918;2023-05-07T19:00:57;12.40;99.90
8114;DHT22;4099;52.684;9.918;2023-05-07T19:05:59;12.20;99.90
8114;DHT22;4099;52.684;9.918;2023-05-07T19:11:02;12.20;99.90
8114;DHT22;4099;52.684;9.918;2023-05-07T19:16:04;12.10;99.90
8114;DHT22;4099;52.684;9.918;2023-05-07T19:21:09;11.70;99.90
8114;DHT22;4099;52.684;9.918;2023-05-07T19:26:13;11.50;99.90
8114;DHT22;4099;52.684;9.918;2023-05-07T19:31:18;11.40;99.90
8114;DHT22;4099;52.684;9.918;2023-05-07T19:36:20;11.30;99.90
8114;DHT22;4099;52.684;9.918;2023-05-07T19:41:24;11.10;99.90
8114;DHT22;4099;52.684;9.918;2023-05-07T19:46:26;10.80;99.90
8114;DHT22;4099;52.684;9.918;2023-05-07T19:51:28;10.40;99.90
8114;DHT22;4099;52.684;9.918;2023-05-07T19:56:33;10.10;99.90
8114;DHT22;4099;52.684;9.918;2023-05-07T20:01:35;9.90;99.90
8114;DHT22;4099;52.684;9.918;2023-05-07T20:06:38;9.70;99.90
8114;DHT22;4099;52.684;9.918;2023-05-07T20:11:41;9.70;99.90
8114;DHT22;4099;52.684;9.918;2023-05-07T20:16:43;9.50;99.90
8114;DHT22;4099;52.684;9.918;2023-05-07T20:21:45;9.50;99.90
8114;DHT22;4099;52.684;9.918;2023-05-07T20:26:48;9.40;99.90
8114;DHT22;4099;52.684;9.918;2023-05-07T20:31:50;9.40;99.90
8114;DHT22;4099;52.684;9.918;2023-05-07T20:36:52;9.20;99.90
8114;DHT22;4099;52.684;9.918;2023-05-07T20:41:55;9.30;99.90
8114;DHT22;4099;52.684;9.918;2023-05-07T20:46:59;9.50;99.90
8114;DHT22;4099;52.684;9.918;2023-05-07T20:52:00;9.50;99.90
8114;DHT22;4099;52.684;9.918;2023-05-07T20:57:03;9.50;99.90
8114;DHT22;4099;52.684;9.918;2023-05-07T21:02:09;9.40;99.90
8114;DHT22;4099;52.684;9.918;2023-05-07T21:07:11;9.30;99.90
8114;DHT22;4099;52.684;9.918;2023-05-07T21:12:14;9.50;99.90
8114;DHT22;4099;52.684;9.918;2023-05-07T21:17:16;9.50;99.90
8114;DHT22;4099;52.684;9.918;2023-05-07T21:22:19;9.40;99.90
8114;DHT22;4099;52.684;9.918;2023-05-07T21:27:22;9.40;99.90
8114;DHT22;4099;52.684;9.918;2023-05-07T21:32:24;9.40;99.90
8114;DHT22;4099;52.684;9.918;2023-05-07T21:37:25;9.30;99.90
8114;DHT22;4099;52.684;9.918;2023-05-07T21:42:29;9.20;99.90
8114;DHT22;4099;52.684;9.918;2023-05-07T21:47:30;9.10;99.90
8114;DHT22;4099;52.684;9.918;2023-05-07T21:52:32;9.10;99.90
8114;DHT22;4099;52.684;9.918;2023-05-07T21:57:35;9.20;99.90
8114;DHT22;4099;52.684;9.918;2023-05-07T22:02:39;9.10;99.90
8114;DHT22;4099;52.684;9.918;2023-05-07T22:07:41;9.20;99.90
8114;DHT22;4099;52.684;9.918;2023-05-07T22:12:44;9.00;99.90
8114;DHT22;4099;52.684;9.918;2023-05-07T22:17:45;9.00;99.90
8114;DHT22;4099;52.684;9.918;2023-05-07T22:22:48;8.90;99.90
8114;DHT22;4099;52.684;9.918;2023-05-07T22:27:51;9.00;99.90
8114;DHT22;4099;52.684;9.918;2023-05-07T22:32:53;8.90;99.90
8114;DHT22;4099;52.684;9.918;2023-05-07T22:37:55;8.80;99.90
8114;DHT22;4099;52.684;9.918;2023-05-07T22:42:59;8.80;99.90
8114;DHT22;4099;52.684;9.918;2023-05-07T22:48:00;8.90;99.90
8114;DHT22;4099;52.684;9.918;2023-05-07T22:53:03;8.80;99.90
8114;DHT22;4099;52.684;9.918;2023-05-07T22:58:06;8.70;99.90
8114;DHT22;4099;52.684;9.918;2023-05-07T23:03:07;8.60;99.90
8114;DHT22;4099;52.684;9.918;2023-05-07T23:08:09;8.60;99.90
8114;DHT22;4099;52.684;9.918;2023-05-07T23:13:13;8.70;99.90
8114;DHT22;4099;52.684;9.918;2023-05-07T23:18:16;8.70;99.90
8114;DHT22;4099;52.684;9.918;2023-05-07T23:23:18;8.60;99.90
8114;DHT22;4099;52.684;9.918;2023-05-07T23:28:21;8.50;99.90
8114;DHT22;4099;52.684;9.918;2023-05-07T23:33:22;8.40;99.90
8114;DHT22;4099;52.684;9.918;2023-05-07T23:38:24;8.40;99.90
8114;DHT22;4099;52.684;9.918;2023-05-07T23:43:28;8.50;99.90
8114;DHT22;4099;52.684;9.918;2023-05-07T23:48:29;8.50;99.90
8114;DHT22;4099;52.684;9.918;2023-05-07T23:53:31;8.40;99.90
8114;DHT22;4099;52.684;9.918;2023-05-07T23:58:34;8.40;99.90
